Abilene, TX

10:39 PM CDT on September 01, 2014 (GMT -0500)
Hillcrest | Change Station
CLOSE
Current Station
Personal Weather Station
Location: Abilene, TX
Elevation: 1686 ft
Nearby Weather Stations

Elev 1686 ft 32.48 °N, 99.71 °W | Updated 10 minutes ago

Clear
Clear
89.2 °F
Feels Like 90 °F
N
9.9
Wind Variable Wind from South

Today
High -- | Low -- °F
--% Chance of Precip.
Yesterday
High -- | Low -- °F
Precip. -- in
7:13 AM 8:03 PM
Waxing Crescent, 47% visible
Pressure 29.78 in
Visibility 10.0 miles
Clouds Clear
Heat Index 90 °F
Dew Point 63 °F
Humidity 42%
Rainfall 0.00 in
Snow Depth Not available.
UV 0 out of 12
Pollen 10.90 out of 12
Air Quality Not available.
Flu Activity Not available.
METAR KABI 020252Z 16014KT 10SM CLR 32/16 A2987 RMK AO2 SLP084 T03220156 53017 $

More Conditions Fewer Conditions

Pressure 29.78 in
Visibility 10.0 miles
Clouds Clear
Heat Index 90 °F
Dew Point 63 °F
Humidity 42%
Rainfall 0.00 in
Snow Depth Not available.
UV 0 out of 12
Pollen 10.90 out of 12
Air Quality Not available.
Flu Activity Not available.
METAR KABI 020252Z 16014KT 10SM CLR 32/16 A2987 RMK AO2 SLP084 T03220156 53017 $

More Conditions Fewer Conditions

10-Day Weather Forecast

Almanac

Astronomy

Sep. 01, 2014 Rise Set
Actual Time 7:13 AM CDT 8:03 PM CDT
Civil Twilight 6:48 AM CDT 8:28 PM CDT
Nautical Twilight 6:19 AM CDT 8:57 PM CDT
Astronomical Twilight 5:48 AM CDT 9:27 PM CDT
Moon 1:38 PM CDT (9/1) No Moon Set
Length of Visible Light 13h 39m
Length of Day
12h 49m
Tomorrow will be 1m 55s shorter.
Waxing Crescent, 47% of the Moon is Illuminated
Today
Waxing Crescent
Sep 2
First Quarter
Sep 8
Full
Sep 15
Last Quarter
Sep 24
New

Today's Extremes

State Highs State Lows

Community

WunderPhotos

Upload Photos

1,749,555 photos uploaded!

WunderBlogs® & News

Nearby

Snow Depth

Station Depth Elevation
No new snow has been reported.

Earthquake Activity

City Distance Mag. Time & Date
No recent earthquake activity has been reported nearby.
Minimum magnitude displayed is 2.5.

Coastal Water Temperatures

Place Temperature
No Stations Reporting

Nearby Weather Stations